sensor_id;sensor_type;location;lat;lon;timestamp;pressure;altitude;pressure_sealevel;temperature;humidity
35419;BME280;21525;41.240;16.500;2023-01-25T00:02:02;102164.16;;;14.88;68.01
35419;BME280;21525;41.240;16.500;2023-01-25T00:04:28;102168.69;;;14.64;69.53
35419;BME280;21525;41.240;16.500;2023-01-25T00:06:54;102178.16;;;14.84;68.50
35419;BME280;21525;41.240;16.500;2023-01-25T00:09:21;102172.09;;;14.74;69.57
35419;BME280;21525;41.240;16.500;2023-01-25T00:11:47;102170.34;;;14.77;68.84
35419;BME280;21525;41.240;16.500;2023-01-25T00:14:14;102166.97;;;14.62;69.92
35419;BME280;21525;41.240;16.500;2023-01-25T00:16:41;102162.25;;;15.06;67.71
35419;BME280;21525;41.240;16.500;2023-01-25T00:19:08;102157.78;;;15.16;66.89
35419;BME280;21525;41.240;16.500;2023-01-25T00:21:34;102165.03;;;14.88;68.12
35419;BME280;21525;41.240;16.500;2023-01-25T00:24:01;102142.28;;;14.93;67.24
35419;BME280;21525;41.240;16.500;2023-01-25T00:26:32;102132.56;;;15.03;68.23
35419;BME280;21525;41.240;16.500;2023-01-25T00:28:58;102132.50;;;15.10;66.98
35419;BME280;21525;41.240;16.500;2023-01-25T00:31:35;102130.13;;;14.85;67.18
35419;BME280;21525;41.240;16.500;2023-01-25T00:37:29;102128.97;;;15.15;68.36
35419;BME280;21525;41.240;16.500;2023-01-25T00:39:56;102132.38;;;15.24;66.62
35419;BME280;21525;41.240;16.500;2023-01-25T00:42:22;102141.41;;;14.93;68.13
35419;BME280;21525;41.240;16.500;2023-01-25T00:44:48;102143.97;;;14.96;68.12
35419;BME280;21525;41.240;16.500;2023-01-25T00:47:15;102149.16;;;15.03;69.01
35419;BME280;21525;41.240;16.500;2023-01-25T00:49:42;102152.84;;;14.81;69.00
35419;BME280;21525;41.240;16.500;2023-01-25T00:52:09;102147.44;;;15.01;69.35
35419;BME280;21525;41.240;16.500;2023-01-25T00:54:35;102142.31;;;14.89;68.55
35419;BME280;21525;41.240;16.500;2023-01-25T00:57:02;102139.72;;;14.87;68.53
35419;BME280;21525;41.240;16.500;2023-01-25T00:59:28;102137.75;;;15.10;67.83
35419;BME280;21525;41.240;16.500;2023-01-25T01:01:54;102148.91;;;15.29;67.10
35419;BME280;21525;41.240;16.500;2023-01-25T01:04:20;102135.91;;;15.20;66.80
35419;BME280;21525;41.240;16.500;2023-01-25T01:06:51;102144.50;;;15.34;66.80
35419;BME280;21525;41.240;16.500;2023-01-25T01:09:21;102141.69;;;15.53;66.11
35419;BME280;21525;41.240;16.500;2023-01-25T01:11:47;102144.25;;;15.60;65.78
35419;BME280;21525;41.240;16.500;2023-01-25T01:14:13;102142.75;;;15.33;66.46
35419;BME280;21525;41.240;16.500;2023-01-25T01:16:39;102138.28;;;15.44;66.44
35419;BME280;21525;41.240;16.500;2023-01-25T01:19:05;102142.69;;;15.39;66.63
35419;BME280;21525;41.240;16.500;2023-01-25T01:21:31;102140.34;;;15.12;67.86
35419;BME280;21525;41.240;16.500;2023-01-25T01:23:57;102143.66;;;15.29;67.11
35419;BME280;21525;41.240;16.500;2023-01-25T01:26:23;102135.66;;;15.43;66.96
35419;BME280;21525;41.240;16.500;2023-01-25T01:28:49;102134.94;;;15.27;66.64
35419;BME280;21525;41.240;16.500;2023-01-25T01:31:18;102126.50;;;15.82;65.59
35419;BME280;21525;41.240;16.500;2023-01-25T01:33:54;102123.72;;;15.94;64.61
35419;BME280;21525;41.240;16.500;2023-01-25T01:36:22;102120.19;;;15.95;63.03
35419;BME280;21525;41.240;16.500;2023-01-25T01:38:48;102125.75;;;14.85;67.13
35419;BME280;21525;41.240;16.500;2023-01-25T01:41:15;102119.34;;;15.17;66.84
35419;BME280;21525;41.240;16.500;2023-01-25T01:43:42;102110.56;;;15.22;67.33
35419;BME280;21525;41.240;16.500;2023-01-25T01:46:36;102106.09;;;15.30;67.08
35419;BME280;21525;41.240;16.500;2023-01-25T01:49:30;102102.22;;;14.79;67.89
35419;BME280;21525;41.240;16.500;2023-01-25T01:52:16;102098.66;;;14.88;68.55
35419;BME280;21525;41.240;16.500;2023-01-25T01:55:12;102107.19;;;15.09;67.70
35419;BME280;21525;41.240;16.500;2023-01-25T01:57:50;102098.53;;;15.00;67.25
35419;BME280;21525;41.240;16.500;2023-01-25T02:00:26;102098.72;;;14.82;68.84
35419;BME280;21525;41.240;16.500;2023-01-25T02:02:54;102099.03;;;15.37;66.48
35419;BME280;21525;41.240;16.500;2023-01-25T02:05:34;102095.25;;;14.76;68.07
35419;BME280;21525;41.240;16.500;2023-01-25T02:08:06;102106.47;;;14.94;67.09
35419;BME280;21525;41.240;16.500;2023-01-25T02:10:35;102102.22;;;14.79;68.47
35419;BME280;21525;41.240;16.500;2023-01-25T02:13:01;102092.66;;;14.72;69.04
35419;BME280;21525;41.240;16.500;2023-01-25T02:15:34;102101.34;;;14.82;68.01
35419;BME280;21525;41.240;16.500;2023-01-25T02:18:02;102098.56;;;14.97;67.04
35419;BME280;21525;41.240;16.500;2023-01-25T02:20:35;102100.13;;;15.16;66.52
35419;BME280;21525;41.240;16.500;2023-01-25T02:25:55;102099.28;;;15.14;66.68
35419;BME280;21525;41.240;16.500;2023-01-25T02:28:28;102090.66;;;15.01;66.15
35419;BME280;21525;41.240;16.500;2023-01-25T02:30:55;102090.88;;;14.78;67.72
35419;BME280;21525;41.240;16.500;2023-01-25T02:33:23;102082.50;;;15.29;66.21
35419;BME280;21525;41.240;16.500;2023-01-25T02:35:55;102090.16;;;14.61;67.98
35419;BME280;21525;41.240;16.500;2023-01-25T02:38:23;102080.47;;;14.68;67.67
35419;BME280;21525;41.240;16.500;2023-01-25T02:40:56;102082.22;;;14.67;68.01
35419;BME280;21525;41.240;16.500;2023-01-25T02:43:31;102086.19;;;15.14;67.49
35419;BME280;21525;41.240;16.500;2023-01-25T02:46:13;102079.19;;;15.15;66.52
35419;BME280;21525;41.240;16.500;2023-01-25T02:48:43;102088.06;;;14.98;65.90
35419;BME280;21525;41.240;16.500;2023-01-25T02:51:10;102084.69;;;14.89;67.44
35419;BME280;21525;41.240;16.500;2023-01-25T02:53:37;102079.56;;;14.73;67.23
35419;BME280;21525;41.240;16.500;2023-01-25T02:56:03;102083.75;;;14.94;67.65
35419;BME280;21525;41.240;16.500;2023-01-25T02:58:29;102077.88;;;14.66;68.69
35419;BME280;21525;41.240;16.500;2023-01-25T03:00:56;102071.28;;;15.18;65.39
35419;BME280;21525;41.240;16.500;2023-01-25T03:03:22;102068.19;;;14.77;67.48
35419;BME280;21525;41.240;16.500;2023-01-25T03:05:49;102064.84;;;14.62;67.39
35419;BME280;21525;41.240;16.500;2023-01-25T03:08:15;102059.53;;;14.68;67.57
35419;BME280;21525;41.240;16.500;2023-01-25T03:10:42;102066.66;;;14.54;68.71
35419;BME280;21525;41.240;16.500;2023-01-25T03:13:08;102051.50;;;14.89;67.98
35419;BME280;21525;41.240;16.500;2023-01-25T03:15:34;102054.06;;;14.94;66.98
35419;BME280;21525;41.240;16.500;2023-01-25T03:18:00;102055.19;;;14.67;68.38
35419;BME280;21525;41.240;16.500;2023-01-25T03:20:26;102060.13;;;14.96;67.86
35419;BME280;21525;41.240;16.500;2023-01-25T03:22:52;102053.94;;;15.06;67.01
35419;BME280;21525;41.240;16.500;2023-01-25T03:25:19;102047.81;;;15.07;67.24
35419;BME280;21525;41.240;16.500;2023-01-25T03:27:53;102054.13;;;14.86;68.49
35419;BME280;21525;41.240;16.500;2023-01-25T03:30:20;102049.97;;;14.62;69.80
35419;BME280;21525;41.240;16.500;2023-01-25T03:32:46;102050.28;;;15.22;67.81
35419;BME280;21525;41.240;16.500;2023-01-25T03:35:17;102053.94;;;15.04;68.63
35419;BME280;21525;41.240;16.500;2023-01-25T03:37:44;102045.19;;;15.07;67.65
35419;BME280;21525;41.240;16.500;2023-01-25T03:40:11;102049.78;;;14.87;68.23
35419;BME280;21525;41.240;16.500;2023-01-25T03:42:41;102030.81;;;15.41;66.44
35419;BME280;21525;41.240;16.500;2023-01-25T03:45:07;102034.78;;;14.99;68.16
35419;BME280;21525;41.240;16.500;2023-01-25T03:47:33;102033.78;;;15.11;67.32
35419;BME280;21525;41.240;16.500;2023-01-25T03:49:59;102033.69;;;15.20;67.58
35419;BME280;21525;41.240;16.500;2023-01-25T03:56:03;102026.38;;;14.67;70.75
35419;BME280;21525;41.240;16.500;2023-01-25T03:58:34;102016.78;;;14.64;70.90
35419;BME280;21525;41.240;16.500;2023-01-25T04:01:03;102017.63;;;14.68;71.20
35419;BME280;21525;41.240;16.500;2023-01-25T04:03:29;102008.03;;;14.68;72.64
35419;BME280;21525;41.240;16.500;2023-01-25T04:05:57;102006.50;;;14.43;72.33
35419;BME280;21525;41.240;16.500;2023-01-25T04:08:23;102001.06;;;14.67;71.14
35419;BME280;21525;41.240;16.500;2023-01-25T04:10:52;102000.91;;;14.83;71.56
35419;BME280;21525;41.240;16.500;2023-01-25T04:13:23;101993.66;;;15.06;69.95
35419;BME280;21525;41.240;16.500;2023-01-25T04:15:50;101982.66;;;15.49;68.78
35419;BME280;21525;41.240;16.500;2023-01-25T04:18:34;101992.13;;;14.87;70.93
35419;BME280;21525;41.240;16.500;2023-01-25T04:21:00;101985.72;;;15.13;69.88
35419;BME280;21525;41.240;16.500;2023-01-25T04:23:26;101984.81;;;15.16;69.40
35419;BME280;21525;41.240;16.500;2023-01-25T04:25:57;101980.56;;;15.04;69.55
35419;BME280;21525;41.240;16.500;2023-01-25T04:28:23;101981.00;;;15.41;67.33
35419;BME280;21525;41.240;16.500;2023-01-25T04:30:50;101972.19;;;15.45;67.71
35419;BME280;21525;41.240;16.500;2023-01-25T04:33:18;101978.13;;;14.91;70.37
35419;BME280;21525;41.240;16.500;2023-01-25T04:35:45;101973.44;;;15.17;69.58
35419;BME280;21525;41.240;16.500;2023-01-25T04:38:13;101974.47;;;15.04;69.55
35419;BME280;21525;41.240;16.500;2023-01-25T04:40:42;101963.34;;;14.85;70.27
35419;BME280;21525;41.240;16.500;2023-01-25T04:43:12;101957.38;;;15.43;69.59
35419;BME280;21525;41.240;16.500;2023-01-25T04:45:38;101955.44;;;14.88;70.69
35419;BME280;21525;41.240;16.500;2023-01-25T04:48:11;101959.97;;;14.74;71.45
35419;BME280;21525;41.240;16.500;2023-01-25T04:50:44;101952.06;;;14.78;71.78
35419;BME280;21525;41.240;16.500;2023-01-25T04:53:12;101951.25;;;14.72;72.06
35419;BME280;21525;41.240;16.500;2023-01-25T04:55:38;101946.75;;;14.85;71.80
35419;BME280;21525;41.240;16.500;2023-01-25T04:58:06;101945.03;;;14.82;72.04
35419;BME280;21525;41.240;16.500;2023-01-25T05:00:32;101940.56;;;14.93;71.70
35419;BME280;21525;41.240;16.500;2023-01-25T05:03:01;101949.28;;;14.92;71.57
35419;BME280;21525;41.240;16.500;2023-01-25T05:05:26;101950.94;;;14.99;71.73
35419;BME280;21525;41.240;16.500;2023-01-25T05:07:53;101950.97;;;14.96;72.20
35419;BME280;21525;41.240;16.500;2023-01-25T05:10:19;101946.75;;;14.85;72.88
35419;BME280;21525;41.240;16.500;2023-01-25T05:13:05;101946.78;;;14.82;72.82
35419;BME280;21525;41.240;16.500;2023-01-25T05:15:31;101953.16;;;14.56;73.22
35419;BME280;21525;41.240;16.500;2023-01-25T05:17:57;101960.72;;;14.87;71.87
35419;BME280;21525;41.240;16.500;2023-01-25T05:20:23;101958.09;;;14.87;71.47
35419;BME280;21525;41.240;16.500;2023-01-25T05:22:49;101953.81;;;14.76;71.93
35419;BME280;21525;41.240;16.500;2023-01-25T05:25:16;101954.38;;;15.03;71.92
35419;BME280;21525;41.240;16.500;2023-01-25T05:28:04;101945.59;;;15.08;71.08
35419;BME280;21525;41.240;16.500;2023-01-25T05:30:57;101936.81;;;15.11;70.87
35419;BME280;21525;41.240;16.500;2023-01-25T05:33:25;101938.09;;;14.78;71.92
35419;BME280;21525;41.240;16.500;2023-01-25T05:35:50;101934.03;;;15.26;70.58
35419;BME280;21525;41.240;16.500;2023-01-25T05:38:16;101941.97;;;15.20;70.55
35419;BME280;21525;41.240;16.500;2023-01-25T05:40:42;101933.94;;;15.29;69.52
35419;BME280;21525;41.240;16.500;2023-01-25T05:43:08;101932.03;;;15.43;70.49
35419;BME280;21525;41.240;16.500;2023-01-25T05:45:34;101936.13;;;14.97;71.35
35419;BME280;21525;41.240;16.500;2023-01-25T05:48:01;101945.28;;;15.31;70.65
35419;BME280;21525;41.240;16.500;2023-01-25T05:50:28;101942.69;;;15.28;70.49
35419;BME280;21525;41.240;16.500;2023-01-25T05:52:59;101941.03;;;15.24;71.56
35419;BME280;21525;41.240;16.500;2023-01-25T05:55:27;101931.25;;;15.35;70.55
35419;BME280;21525;41.240;16.500;2023-01-25T05:57:56;101945.59;;;15.08;71.80
35419;BME280;21525;41.240;16.500;2023-01-25T06:00:24;101939.38;;;15.17;70.92
35419;BME280;21525;41.240;16.500;2023-01-25T06:02:50;101940.31;;;15.11;71.66
35419;BME280;21525;41.240;16.500;2023-01-25T06:05:20;101949.84;;;15.19;72.16
35419;BME280;21525;41.240;16.500;2023-01-25T06:07:46;101937.56;;;15.24;70.75
35419;BME280;21525;41.240;16.500;2023-01-25T06:10:12;101941.75;;;15.34;71.42
35419;BME280;21525;41.240;16.500;2023-01-25T06:12:38;101934.13;;;15.17;71.13
35419;BME280;21525;41.240;16.500;2023-01-25T06:15:05;101928.72;;;15.29;70.41
35419;BME280;21525;41.240;16.500;2023-01-25T06:17:31;101926.38;;;15.09;72.68
35419;BME280;21525;41.240;16.500;2023-01-25T06:20:16;101923.38;;;15.37;71.21
35419;BME280;21525;41.240;16.500;2023-01-25T06:23:17;101932.97;;;15.38;70.82
35419;BME280;21525;41.240;16.500;2023-01-25T06:25:43;101930.75;;;15.72;69.33
35419;BME280;21525;41.240;16.500;2023-01-25T06:28:09;101931.84;;;15.59;68.80
35419;BME280;21525;41.240;16.500;2023-01-25T06:30:35;101926.00;;;15.37;70.74
35419;BME280;21525;41.240;16.500;2023-01-25T06:33:01;101920.53;;;15.52;70.33
35419;BME280;21525;41.240;16.500;2023-01-25T06:35:27;101923.59;;;15.83;69.03
35419;BME280;21525;41.240;16.500;2023-01-25T06:37:55;101924.91;;;15.53;68.95
35419;BME280;21525;41.240;16.500;2023-01-25T06:40:21;101936.66;;;15.25;70.89
35419;BME280;21525;41.240;16.500;2023-01-25T06:42:47;101915.00;;;16.26;68.25
35419;BME280;21525;41.240;16.500;2023-01-25T06:45:13;101913.22;;;15.75;69.23
35419;BME280;21525;41.240;16.500;2023-01-25T06:47:39;101908.63;;;15.28;71.20
35419;BME280;21525;41.240;16.500;2023-01-25T06:50:06;101898.75;;;15.47;70.93
35419;BME280;21525;41.240;16.500;2023-01-25T06:52:32;101904.50;;;15.12;71.10
35419;BME280;21525;41.240;16.500;2023-01-25T06:55:02;101908.53;;;15.34;71.95
35419;BME280;21525;41.240;16.500;2023-01-25T06:57:27;101895.03;;;15.63;70.38
35419;BME280;21525;41.240;16.500;2023-01-25T06:59:54;101892.63;;;15.48;70.09
35419;BME280;21525;41.240;16.500;2023-01-25T07:02:20;101888.72;;;15.76;69.21
35419;BME280;21525;41.240;16.500;2023-01-25T07:04:46;101894.41;;;16.03;69.39
35419;BME280;21525;41.240;16.500;2023-01-25T07:07:13;101892.53;;;16.09;68.18
35419;BME280;21525;41.240;16.500;2023-01-25T07:09:39;101892.53;;;16.09;67.91
35419;BME280;21525;41.240;16.500;2023-01-25T07:12:05;101896.88;;;16.12;68.32
35419;BME280;21525;41.240;16.500;2023-01-25T07:14:31;101890.59;;;16.21;67.40
35419;BME280;21525;41.240;16.500;2023-01-25T07:16:57;101891.72;;;16.07;67.40
35419;BME280;21525;41.240;16.500;2023-01-25T07:19:23;101889.41;;;15.89;69.01
35419;BME280;21525;41.240;16.500;2023-01-25T07:21:49;101891.06;;;15.93;69.41
35419;BME280;21525;41.240;16.500;2023-01-25T07:24:16;101893.75;;;15.90;69.34
35419;BME280;21525;41.240;16.500;2023-01-25T07:26:43;101891.94;;;15.92;69.29
35419;BME280;21525;41.240;16.500;2023-01-25T07:29:14;101891.59;;;15.60;71.28
35419;BME280;21525;41.240;16.500;2023-01-25T07:31:41;101889.97;;;16.06;70.03
35419;BME280;21525;41.240;16.500;2023-01-25T07:34:11;101894.78;;;15.80;70.80
35419;BME280;21525;41.240;16.500;2023-01-25T07:36:38;101888.22;;;15.52;71.73
35419;BME280;21525;41.240;16.500;2023-01-25T07:39:04;101897.41;;;15.82;71.05
35419;BME280;21525;41.240;16.500;2023-01-25T07:41:30;101887.19;;;15.62;71.99
35419;BME280;21525;41.240;16.500;2023-01-25T07:43:57;101890.75;;;16.11;70.02
35419;BME280;21525;41.240;16.500;2023-01-25T07:46:58;101892.75;;;15.97;70.77
35419;BME280;21525;41.240;16.500;2023-01-25T07:49:24;101883.47;;;15.76;71.82
35419;BME280;21525;41.240;16.500;2023-01-25T07:51:49;101891.38;;;16.26;70.30
35419;BME280;21525;41.240;16.500;2023-01-25T07:54:15;101890.16;;;15.96;71.16
35419;BME280;21525;41.240;16.500;2023-01-25T07:56:41;101882.56;;;16.28;69.81
35419;BME280;21525;41.240;16.500;2023-01-25T07:59:09;101883.03;;;16.52;69.82
35419;BME280;21525;41.240;16.500;2023-01-25T08:01:35;101884.88;;;15.97;71.33
35419;BME280;21525;41.240;16.500;2023-01-25T08:04:02;101881.13;;;16.12;71.17
35419;BME280;21525;41.240;16.500;2023-01-25T08:06:33;101878.09;;;16.35;69.46
35419;BME280;21525;41.240;16.500;2023-01-25T08:09:03;101870.56;;;16.17;70.80
35419;BME280;21525;41.240;16.500;2023-01-25T08:11:29;101881.38;;;15.97;71.70
35419;BME280;21525;41.240;16.500;2023-01-25T08:13:57;101875.72;;;16.21;71.01
35419;BME280;21525;41.240;16.500;2023-01-25T08:16:25;101881.06;;;16.17;71.50
35419;BME280;21525;41.240;16.500;2023-01-25T08:18:53;101874.56;;;16.36;71.09
35419;BME280;21525;41.240;16.500;2023-01-25T08:21:20;101878.19;;;16.29;71.00
35419;BME280;21525;41.240;16.500;2023-01-25T08:23:46;101873.00;;;16.73;69.59
35419;BME280;21525;41.240;16.500;2023-01-25T08:26:13;101873.41;;;16.51;68.83
35419;BME280;21525;41.240;16.500;2023-01-25T08:28:39;101874.81;;;16.70;68.94
35419;BME280;21525;41.240;16.500;2023-01-25T08:31:27;101871.63;;;16.96;68.26
35419;BME280;21525;41.240;16.500;2023-01-25T08:33:53;101869.16;;;16.45;69.99
35419;BME280;21525;41.240;16.500;2023-01-25T08:36:20;101873.97;;;16.68;68.70
35419;BME280;21525;41.240;16.500;2023-01-25T08:38:55;101858.13;;;16.25;71.14
35419;BME280;21525;41.240;16.500;2023-01-25T08:41:22;101848.19;;;16.42;71.12
35419;BME280;21525;41.240;16.500;2023-01-25T08:43:48;101848.69;;;17.04;67.94
35419;BME280;21525;41.240;16.500;2023-01-25T08:46:15;101853.22;;;16.54;70.97
35419;BME280;21525;41.240;16.500;2023-01-25T08:48:41;101851.53;;;16.50;72.28
35419;BME280;21525;41.240;16.500;2023-01-25T08:51:08;101848.66;;;16.62;72.85
35419;BME280;21525;41.240;16.500;2023-01-25T08:53:36;101854.34;;;16.86;71.01
35419;BME280;21525;41.240;16.500;2023-01-25T08:56:06;101848.38;;;16.77;71.94
35419;BME280;21525;41.240;16.500;2023-01-25T08:58:33;101849.66;;;17.00;72.39
35419;BME280;21525;41.240;16.500;2023-01-25T09:01:04;101853.09;;;16.59;73.25
35419;BME280;21525;41.240;16.500;2023-01-25T09:03:30;101853.59;;;16.79;73.35
35419;BME280;21525;41.240;16.500;2023-01-25T09:05:56;101848.00;;;16.94;72.73
35419;BME280;21525;41.240;16.500;2023-01-25T09:08:22;101845.78;;;16.76;73.71
35419;BME280;21525;41.240;16.500;2023-01-25T09:10:48;101847.19;;;16.92;73.62
35419;BME280;21525;41.240;16.500;2023-01-25T09:13:14;101839.63;;;16.77;74.85
35419;BME280;21525;41.240;16.500;2023-01-25T09:15:39;101836.19;;;16.75;74.56
35419;BME280;21525;41.240;16.500;2023-01-25T09:18:05;101832.22;;;16.54;76.86
35419;BME280;21525;41.240;16.500;2023-01-25T09:20:31;101835.31;;;16.74;75.62
35419;BME280;21525;41.240;16.500;2023-01-25T09:22:57;101827.06;;;16.48;76.71
35419;BME280;21525;41.240;16.500;2023-01-25T09:25:23;101828.09;;;16.84;75.37
35419;BME280;21525;41.240;16.500;2023-01-25T09:27:49;101827.03;;;16.93;76.36
35419;BME280;21525;41.240;16.500;2023-01-25T09:30:18;101820.59;;;16.66;77.86
35419;BME280;21525;41.240;16.500;2023-01-25T09:32:48;101818.28;;;16.92;76.89
35419;BME280;21525;41.240;16.500;2023-01-25T09:35:15;101816.28;;;17.03;77.31
35419;BME280;21525;41.240;16.500;2023-01-25T09:37:41;101810.03;;;17.09;76.88
35419;BME280;21525;41.240;16.500;2023-01-25T09:40:20;101809.25;;;16.62;77.75
35419;BME280;21525;41.240;16.500;2023-01-25T09:42:57;101809.63;;;17.26;76.18
35419;BME280;21525;41.240;16.500;2023-01-25T09:45:33;101804.63;;;16.76;78.35
35419;BME280;21525;41.240;16.500;2023-01-25T09:48:13;101810.69;;;15.89;85.71
35419;BME280;21525;41.240;16.500;2023-01-25T09:55:50;101805.72;;;16.65;81.19
35419;BME280;21525;41.240;16.500;2023-01-25T09:58:26;101801.03;;;16.81;80.37
35419;BME280;21525;41.240;16.500;2023-01-25T10:06:25;101802.00;;;16.32;84.80
35419;BME280;21525;41.240;16.500;2023-01-25T10:08:56;101783.66;;;17.12;82.43
35419;BME280;21525;41.240;16.500;2023-01-25T10:11:28;101770.59;;;17.09;79.74
35419;BME280;21525;41.240;16.500;2023-01-25T10:13:56;101762.06;;;16.99;80.43
35419;BME280;21525;41.240;16.500;2023-01-25T10:16:42;101752.91;;;17.16;81.85
35419;BME280;21525;41.240;16.500;2023-01-25T10:19:13;101746.38;;;16.95;82.97
35419;BME280;21525;41.240;16.500;2023-01-25T10:24:30;101732.56;;;17.22;79.84
35419;BME280;21525;41.240;16.500;2023-01-25T10:29:35;101711.22;;;17.00;83.60
35419;BME280;21525;41.240;16.500;2023-01-25T10:32:28;101715.13;;;17.20;82.12
35419;BME280;21525;41.240;16.500;2023-01-25T10:35:12;101717.28;;;17.02;83.12
35419;BME280;21525;41.240;16.500;2023-01-25T10:37:40;101730.34;;;17.42;81.47
35419;BME280;21525;41.240;16.500;2023-01-25T10:40:20;101725.13;;;17.05;82.28
35419;BME280;21525;41.240;16.500;2023-01-25T10:42:53;101702.16;;;16.76;84.68
35419;BME280;21525;41.240;16.500;2023-01-25T10:45:20;101701.47;;;17.05;83.86
35419;BME280;21525;41.240;16.500;2023-01-25T10:47:49;101705.91;;;17.02;82.16
35419;BME280;21525;41.240;16.500;2023-01-25T10:58:41;101743.63;;;15.21;100.00
35419;BME280;21525;41.240;16.500;2023-01-25T11:01:11;101742.22;;;15.54;100.00
35419;BME280;21525;41.240;16.500;2023-01-25T11:03:42;101732.41;;;16.54;95.95
35419;BME280;21525;41.240;16.500;2023-01-25T11:06:11;101730.56;;;15.70;100.00
35419;BME280;21525;41.240;16.500;2023-01-25T11:08:41;101722.47;;;16.27;96.00
35419;BME280;21525;41.240;16.500;2023-01-25T11:11:23;101715.28;;;16.76;92.41
35419;BME280;21525;41.240;16.500;2023-01-25T11:13:51;101702.28;;;17.07;89.28
35419;BME280;21525;41.240;16.500;2023-01-25T11:16:34;101690.56;;;17.21;88.29
35419;BME280;21525;41.240;16.500;2023-01-25T11:19:02;101696.81;;;17.51;85.51
35419;BME280;21525;41.240;16.500;2023-01-25T11:21:33;101694.38;;;17.43;85.00
35419;BME280;21525;41.240;16.500;2023-01-25T11:26:36;101684.63;;;17.46;86.70
35419;BME280;21525;41.240;16.500;2023-01-25T11:31:35;101676.28;;;17.65;83.26
35419;BME280;21525;41.240;16.500;2023-01-25T11:34:01;101667.19;;;17.76;85.44
35419;BME280;21525;41.240;16.500;2023-01-25T11:48:02;101640.72;;;18.12;83.80
35419;BME280;21525;41.240;16.500;2023-01-25T11:54:03;101626.09;;;18.02;85.47
35419;BME280;21525;41.240;16.500;2023-01-25T12:05:27;101604.03;;;18.63;83.29
35419;BME280;21525;41.240;16.500;2023-01-25T12:08:16;101602.78;;;18.47;83.62
35419;BME280;21525;41.240;16.500;2023-01-25T12:14:34;101590.97;;;18.59;83.79
35419;BME280;21525;41.240;16.500;2023-01-25T12:17:44;101600.09;;;18.49;84.12
35419;BME280;21525;41.240;16.500;2023-01-25T12:25:57;101589.06;;;18.08;84.85
35419;BME280;21525;41.240;16.500;2023-01-25T12:28:28;101582.34;;;18.26;83.74
35419;BME280;21525;41.240;16.500;2023-01-25T12:33:42;101560.03;;;18.37;83.32
35419;BME280;21525;41.240;16.500;2023-01-25T12:38:54;101547.75;;;18.38;83.70
35419;BME280;21525;41.240;16.500;2023-01-25T12:46:29;101545.25;;;18.61;84.84
35419;BME280;21525;41.240;16.500;2023-01-25T12:48:59;101552.31;;;18.59;84.65
35419;BME280;21525;41.240;16.500;2023-01-25T12:51:34;101543.09;;;18.46;86.12
35419;BME280;21525;41.240;16.500;2023-01-25T12:54:06;101538.22;;;18.34;87.41
35419;BME280;21525;41.240;16.500;2023-01-25T12:57:14;101534.00;;;18.55;89.18
35419;BME280;21525;41.240;16.500;2023-01-25T13:02:36;101527.78;;;18.57;93.00
35419;BME280;21525;41.240;16.500;2023-01-25T13:07:52;101523.75;;;18.47;88.27
35419;BME280;21525;41.240;16.500;2023-01-25T13:10:29;101521.75;;;18.54;86.01
35419;BME280;21525;41.240;16.500;2023-01-25T13:13:27;101518.38;;;18.50;86.40
35419;BME280;21525;41.240;16.500;2023-01-25T13:15:54;101516.03;;;18.41;87.42
35419;BME280;21525;41.240;16.500;2023-01-25T13:20:53;101511.47;;;18.46;85.93
35419;BME280;21525;41.240;16.500;2023-01-25T13:28:53;101508.22;;;18.38;87.61
35419;BME280;21525;41.240;16.500;2023-01-25T13:34:08;101500.47;;;18.33;87.14
35419;BME280;21525;41.240;16.500;2023-01-25T13:42:32;101493.56;;;18.03;89.62
35419;BME280;21525;41.240;16.500;2023-01-25T13:45:02;101492.63;;;18.05;89.24
35419;BME280;21525;41.240;16.500;2023-01-25T13:47:34;101487.31;;;18.07;90.82
35419;BME280;21525;41.240;16.500;2023-01-25T13:53:05;101495.81;;;17.87;92.38
35419;BME280;21525;41.240;16.500;2023-01-25T13:55:47;101485.75;;;18.00;89.17
35419;BME280;21525;41.240;16.500;2023-01-25T13:58:20;101490.78;;;18.07;89.84
35419;BME280;21525;41.240;16.500;2023-01-25T14:03:18;101490.34;;;17.64;92.04
35419;BME280;21525;41.240;16.500;2023-01-25T14:05:54;101489.22;;;17.74;92.48
35419;BME280;21525;41.240;16.500;2023-01-25T14:08:21;101484.47;;;17.56;93.35
35419;BME280;21525;41.240;16.500;2023-01-25T14:10:48;101481.84;;;17.85;91.94
35419;BME280;21525;41.240;16.500;2023-01-25T14:13:16;101481.50;;;17.68;92.25
35419;BME280;21525;41.240;16.500;2023-01-25T14:15:56;101490.69;;;17.53;93.40
35419;BME280;21525;41.240;16.500;2023-01-25T14:18:33;101486.75;;;17.68;92.98
35419;BME280;21525;41.240;16.500;2023-01-25T14:21:16;101480.63;;;17.67;92.14
35419;BME280;21525;41.240;16.500;2023-01-25T14:23:43;101476.88;;;17.46;94.53
35419;BME280;21525;41.240;16.500;2023-01-25T14:26:16;101470.16;;;17.66;92.88
35419;BME280;21525;41.240;16.500;2023-01-25T14:28:48;101477.34;;;18.17;88.63
35419;BME280;21525;41.240;16.500;2023-01-25T14:31:19;101467.34;;;17.72;89.56
35419;BME280;21525;41.240;16.500;2023-01-25T14:33:46;101468.75;;;17.23;92.28
35419;BME280;21525;41.240;16.500;2023-01-25T14:36:20;101468.28;;;17.40;90.63
35419;BME280;21525;41.240;16.500;2023-01-25T14:38:46;101463.72;;;17.76;90.19
35419;BME280;21525;41.240;16.500;2023-01-25T14:43:40;101459.91;;;17.55;89.50
35419;BME280;21525;41.240;16.500;2023-01-25T14:46:34;101455.78;;;17.48;90.51
35419;BME280;21525;41.240;16.500;2023-01-25T14:49:22;101457.81;;;17.68;88.87